createdAt,value
2018-09-24T00:01:56.012Z,3.80
2018-09-24T00:04:26.085Z,4.30
2018-09-24T00:06:56.079Z,5.80
2018-09-24T00:09:26.017Z,2.87
2018-09-24T00:11:56.351Z,5.33
2018-09-24T00:14:26.369Z,5.00
2018-09-24T00:16:56.356Z,3.20
2018-09-24T00:19:26.481Z,3.37
2018-09-24T00:21:56.676Z,4.60
2018-09-24T00:24:26.705Z,2.67
2018-09-24T00:26:56.692Z,4.17
2018-09-24T00:29:27.044Z,4.20
2018-09-24T00:31:57.174Z,3.47
2018-09-24T00:34:28.203Z,2.47
2018-09-24T00:36:58.462Z,2.50
2018-09-24T00:39:28.670Z,3.43
2018-09-24T00:41:58.795Z,3.40
2018-09-24T00:44:28.851Z,3.43
2018-09-24T00:46:59.031Z,2.90
2018-09-24T00:49:29.472Z,2.87
2018-09-24T00:51:59.526Z,2.80
2018-09-24T00:54:29.758Z,5.43
2018-09-24T00:56:59.958Z,2.60
2018-09-24T00:59:29.937Z,3.10
2018-09-24T01:01:59.868Z,2.53
2018-09-24T01:04:29.932Z,2.60
2018-09-24T01:07:00.169Z,2.50
2018-09-24T01:09:31.220Z,2.57
2018-09-24T01:12:01.354Z,2.00
2018-09-24T01:14:31.425Z,2.73
2018-09-24T01:17:01.614Z,6.50
2018-09-24T01:19:31.529Z,3.13
2018-09-24T01:22:01.613Z,2.50
2018-09-24T01:24:31.678Z,2.30
2018-09-24T01:27:01.833Z,2.40
2018-09-24T01:29:31.865Z,3.43
2018-09-24T01:32:01.966Z,2.90
2018-09-24T01:34:31.985Z,4.40
2018-09-24T01:37:01.993Z,2.30
2018-09-24T01:39:31.933Z,3.10
2018-09-24T01:42:01.892Z,2.80
2018-09-24T01:44:31.893Z,2.87
2018-09-24T01:47:01.923Z,2.77
2018-09-24T01:49:31.851Z,2.37
2018-09-24T01:52:01.857Z,2.40
2018-09-24T01:54:31.987Z,2.10
2018-09-24T01:57:01.908Z,5.60
2018-09-24T01:59:31.839Z,2.23
2018-09-24T02:02:01.805Z,2.17
2018-09-24T02:04:31.792Z,2.27
2018-09-24T02:07:02.045Z,2.03
2018-09-24T02:09:32.319Z,2.17
2018-09-24T02:12:05.556Z,2.43
2018-09-24T02:14:36.097Z,2.27
2018-09-24T02:17:06.493Z,3.73
2018-09-24T02:19:36.523Z,2.03
2018-09-24T02:22:06.500Z,2.53
2018-09-24T02:24:36.519Z,2.23
2018-09-24T02:27:08.744Z,2.40
2018-09-24T02:29:39.345Z,3.07
2018-09-24T02:32:09.374Z,2.40
2018-09-24T02:34:39.448Z,3.57
2018-09-24T02:37:09.571Z,2.20
2018-09-24T02:39:39.608Z,2.33
2018-09-24T02:42:09.761Z,2.47
2018-09-24T02:44:39.830Z,1.83
2018-09-24T02:47:09.767Z,1.87
2018-09-24T02:49:39.881Z,2.03
2018-09-24T02:52:10.564Z,3.03
2018-09-24T02:54:40.503Z,2.37
2018-09-24T02:57:10.450Z,2.57
2018-09-24T02:59:44.994Z,2.10
2018-09-24T03:02:15.037Z,2.10
2018-09-24T03:04:45.069Z,2.37
2018-09-24T03:07:14.986Z,2.33
2018-09-24T03:09:45.077Z,2.47
2018-09-24T03:12:15.125Z,1.50
2018-09-24T03:14:45.303Z,1.90
2018-09-24T03:17:17.678Z,1.87
2018-09-24T03:19:47.697Z,1.40
2018-09-24T03:22:20.903Z,1.90
2018-09-24T03:24:51.453Z,2.67
2018-09-24T03:27:22.213Z,2.10
2018-09-24T03:29:52.309Z,2.13
2018-09-24T03:32:22.341Z,2.33
2018-09-24T03:34:52.391Z,3.47
2018-09-24T03:37:22.555Z,1.97
2018-09-24T03:39:52.546Z,1.60
2018-09-24T03:42:22.562Z,1.83
2018-09-24T03:44:52.842Z,2.63
2018-09-24T03:47:22.876Z,2.60
2018-09-24T03:49:52.998Z,2.40
2018-09-24T03:52:22.958Z,3.40
2018-09-24T03:54:52.923Z,1.50
2018-09-24T03:57:22.886Z,1.77
2018-09-24T03:59:52.979Z,2.17
2018-09-24T04:02:23.102Z,2.53
2018-09-24T04:04:58.458Z,1.90
2018-09-24T04:07:33.897Z,2.93
2018-09-24T04:10:09.289Z,2.93
2018-09-24T04:12:44.579Z,2.53
2018-09-24T04:15:20.073Z,4.07
2018-09-24T04:17:55.430Z,2.70
2018-09-24T04:20:30.789Z,3.13
2018-09-24T04:23:05.987Z,2.30
2018-09-24T04:25:41.329Z,3.57
2018-09-24T04:28:16.506Z,5.07
2018-09-24T04:30:51.750Z,1.97
2018-09-24T04:33:26.884Z,2.43
2018-09-24T04:36:02.076Z,2.33
2018-09-24T04:38:37.447Z,3.50
2018-09-24T04:41:12.725Z,3.30
2018-09-24T04:43:47.937Z,4.93
2018-09-24T04:46:23.375Z,3.70
2018-09-24T04:48:58.737Z,4.27
2018-09-24T04:51:34.114Z,3.97
2018-09-24T04:54:09.278Z,4.53
2018-09-24T04:56:44.525Z,7.37
2018-09-24T04:59:19.662Z,11.03
2018-09-24T05:01:54.898Z,8.33
2018-09-24T05:04:30.466Z,7.47
2018-09-24T05:07:05.813Z,4.67
2018-09-24T05:09:41.196Z,7.10
2018-09-24T05:12:16.442Z,7.13
2018-09-24T05:14:51.650Z,11.17
2018-09-24T05:17:26.866Z,10.73
2018-09-24T05:20:02.110Z,8.73
2018-09-24T05:22:37.340Z,6.70
2018-09-24T05:25:12.774Z,11.87
2018-09-24T05:27:47.811Z,10.97
2018-09-24T05:30:23.235Z,5.93
2018-09-24T05:32:58.438Z,5.97
2018-09-24T05:35:33.752Z,5.97
2018-09-24T05:38:09.096Z,9.00
2018-09-24T05:40:44.653Z,7.03
2018-09-24T05:43:19.885Z,8.13
2018-09-24T05:45:55.165Z,5.17
2018-09-24T05:48:30.668Z,4.73
2018-09-24T05:51:05.056Z,4.87
2018-09-24T05:53:39.728Z,6.70
2018-09-24T05:56:15.189Z,4.67
2018-09-24T05:58:50.407Z,7.80
2018-09-24T06:01:25.927Z,4.63
2018-09-24T06:04:01.298Z,4.30
2018-09-24T06:06:36.663Z,2.83
2018-09-24T06:09:14.111Z,3.17
2018-09-24T06:11:49.413Z,3.77
2018-09-24T06:14:24.460Z,3.53
2018-09-24T06:16:59.653Z,2.73
2018-09-24T06:19:34.896Z,2.87
2018-09-24T06:22:10.217Z,2.47
2018-09-24T06:24:45.557Z,4.40
2018-09-24T06:27:20.989Z,4.43
2018-09-24T06:29:56.172Z,4.27
2018-09-24T06:32:31.697Z,2.60
2018-09-24T06:35:07.182Z,3.80
2018-09-24T06:37:42.639Z,2.57
2018-09-24T06:40:17.913Z,2.73
2018-09-24T06:42:53.298Z,4.87
2018-09-24T06:45:28.612Z,4.40
2018-09-24T06:48:03.935Z,4.13
2018-09-24T06:50:39.336Z,2.47
2018-09-24T06:53:14.739Z,2.67
2018-09-24T06:55:49.985Z,2.90
2018-09-24T06:58:25.386Z,2.53
2018-09-24T07:01:00.683Z,3.07
2018-09-24T07:03:36.074Z,2.57
2018-09-24T07:06:11.467Z,6.23
2018-09-24T07:08:46.891Z,4.70
2018-09-24T07:11:22.252Z,5.10
2018-09-24T07:13:57.454Z,3.40
2018-09-24T07:16:32.670Z,3.37
2018-09-24T07:19:07.982Z,4.03
2018-09-24T07:21:43.548Z,4.33
2018-09-24T07:24:18.847Z,6.83
2018-09-24T07:26:54.219Z,2.53
2018-09-24T07:29:29.607Z,1.73
2018-09-24T07:32:04.908Z,5.10
2018-09-24T07:34:40.129Z,2.67
2018-09-24T07:37:15.651Z,3.17
2018-09-24T07:39:50.787Z,2.77
2018-09-24T07:42:26.057Z,1.67
2018-09-24T07:45:01.290Z,3.73
2018-09-24T07:47:36.614Z,2.03
2018-09-24T07:50:11.873Z,3.93
2018-09-24T07:52:46.985Z,1.87
2018-09-24T07:55:22.405Z,2.13
2018-09-24T07:57:57.736Z,2.70
2018-09-24T08:00:33.098Z,2.37
2018-09-24T08:03:08.297Z,4.13
2018-09-24T08:05:43.525Z,2.87
2018-09-24T08:08:18.958Z,2.70
2018-09-24T08:10:54.339Z,1.70
2018-09-24T08:13:29.649Z,2.60
2018-09-24T08:16:04.768Z,2.33
2018-09-24T08:18:40.052Z,2.67
2018-09-24T08:21:15.454Z,2.53
2018-09-24T08:23:50.907Z,2.27
2018-09-24T08:26:26.310Z,2.97
2018-09-24T08:29:01.789Z,2.63
2018-09-24T08:31:37.045Z,2.10
2018-09-24T08:34:12.367Z,3.27
2018-09-24T08:36:47.600Z,1.80
2018-09-24T08:39:22.814Z,3.47
2018-09-24T08:41:57.914Z,3.00
2018-09-24T08:44:33.164Z,2.10
2018-09-24T08:47:08.654Z,4.43
2018-09-24T08:49:44.074Z,1.23
2018-09-24T08:52:19.268Z,2.23
2018-09-24T08:54:54.656Z,2.80
2018-09-24T08:57:29.846Z,1.60
2018-09-24T09:00:05.011Z,6.03
2018-09-24T09:02:40.296Z,2.50
2018-09-24T09:05:15.688Z,4.00
2018-09-24T09:07:50.838Z,2.17
2018-09-24T09:10:26.214Z,3.07
2018-09-24T09:13:01.353Z,2.30
2018-09-24T09:15:36.925Z,2.67
2018-09-24T09:18:12.360Z,4.57
2018-09-24T09:20:47.588Z,4.43
2018-09-24T09:23:22.958Z,2.10
2018-09-24T09:25:58.352Z,3.57
2018-09-24T09:28:33.553Z,7.33
2018-09-24T09:31:09.072Z,6.83
2018-09-24T09:33:44.260Z,8.77
2018-09-24T09:36:19.734Z,9.47
2018-09-24T09:38:55.103Z,6.07
2018-09-24T09:41:30.389Z,6.27
2018-09-24T09:44:05.662Z,10.50
2018-09-24T09:46:40.991Z,9.73
2018-09-24T09:49:16.125Z,5.77
2018-09-24T09:51:51.446Z,3.77
2018-09-24T09:54:26.710Z,5.97
2018-09-24T09:57:01.909Z,5.80
2018-09-24T09:59:37.144Z,5.17
2018-09-24T10:02:12.691Z,5.10
2018-09-24T10:04:48.202Z,6.27
2018-09-24T10:07:23.324Z,5.93
2018-09-24T10:09:58.426Z,5.47
2018-09-24T10:12:33.650Z,5.20
2018-09-24T10:15:09.061Z,4.57
2018-09-24T10:17:44.247Z,6.07
2018-09-24T10:20:19.878Z,3.70
2018-09-24T10:22:55.110Z,4.03
2018-09-24T10:25:30.548Z,7.30
2018-09-24T10:28:05.903Z,4.00
2018-09-24T10:30:41.139Z,4.77
2018-09-24T10:33:16.375Z,4.23
2018-09-24T10:35:51.778Z,3.07
2018-09-24T10:38:26.954Z,3.17
2018-09-24T10:41:02.218Z,3.63
2018-09-24T10:43:37.682Z,13.60
2018-09-24T10:46:12.906Z,8.73
2018-09-24T10:48:48.125Z,6.47
2018-09-24T10:51:23.335Z,5.33
2018-09-24T10:53:58.745Z,12.20
2018-09-24T10:56:34.092Z,14.20
2018-09-24T10:59:09.455Z,21.60
2018-09-24T11:01:44.793Z,19.77
2018-09-24T11:04:20.052Z,15.37
2018-09-24T11:06:55.383Z,17.90
2018-09-24T11:09:30.552Z,14.77
2018-09-24T11:12:05.916Z,18.33
2018-09-24T11:14:41.115Z,11.50
2018-09-24T11:17:16.759Z,14.53
2018-09-24T11:19:51.744Z,12.87
2018-09-24T11:22:27.128Z,9.20
2018-09-24T11:25:02.307Z,10.43
2018-09-24T11:27:37.547Z,13.17
2018-09-24T11:30:12.826Z,9.73
2018-09-24T11:32:48.131Z,9.47
2018-09-24T11:35:23.790Z,8.30
2018-09-24T11:37:59.446Z,6.17
2018-09-24T11:40:35.352Z,8.33
2018-09-24T11:43:10.599Z,8.23
2018-09-24T11:45:46.127Z,6.10
2018-09-24T11:48:21.421Z,7.83
2018-09-24T11:50:56.663Z,7.23
2018-09-24T11:53:31.883Z,4.80
2018-09-24T11:56:07.423Z,5.17
2018-09-24T11:58:42.556Z,6.47
2018-09-24T12:01:18.032Z,4.43
2018-09-24T12:03:53.408Z,6.40
2018-09-24T12:06:29.114Z,3.90
2018-09-24T12:09:04.451Z,6.07
2018-09-24T12:11:39.627Z,6.20
2018-09-24T12:14:14.676Z,4.47
2018-09-24T12:16:50.046Z,5.40
2018-09-24T12:19:25.216Z,5.43
2018-09-24T12:22:00.566Z,3.97
2018-09-24T12:24:35.960Z,4.30
2018-09-24T12:27:11.624Z,6.63
2018-09-24T12:29:46.793Z,8.30
2018-09-24T12:32:21.985Z,9.13
2018-09-24T12:34:57.240Z,9.67
2018-09-24T12:37:32.537Z,4.77
2018-09-24T12:40:07.879Z,4.73
2018-09-24T12:42:43.127Z,7.60
2018-09-24T12:45:18.414Z,4.03
2018-09-24T12:47:53.644Z,9.13
2018-09-24T13:02:07.251Z,4.73
2018-09-24T13:04:42.358Z,3.23
2018-09-24T13:07:17.698Z,6.63
2018-09-24T13:15:51.294Z,3.60
2018-09-24T13:18:26.528Z,4.63
2018-09-24T13:21:01.939Z,7.03
2018-09-24T13:23:37.202Z,8.33
2018-09-24T13:26:12.902Z,8.23
2018-09-24T13:28:48.090Z,5.20
2018-09-24T13:31:23.410Z,4.97
2018-09-24T13:33:58.775Z,6.53
2018-09-24T13:36:34.142Z,3.70
2018-09-24T13:39:10.792Z,6.13
2018-09-24T13:41:45.959Z,5.87
2018-09-24T13:44:21.172Z,7.20
2018-09-24T13:46:56.491Z,7.87
2018-09-24T13:49:32.190Z,3.43
2018-09-24T13:52:07.589Z,8.00
2018-09-24T13:54:42.757Z,6.67
2018-09-24T13:57:18.039Z,5.23
2018-09-24T13:59:53.448Z,4.27
2018-09-24T14:02:28.870Z,7.43
2018-09-24T14:05:04.206Z,5.27
2018-09-24T14:07:39.535Z,5.27
2018-09-24T14:10:14.731Z,3.87
2018-09-24T14:12:50.074Z,5.67
2018-09-24T14:15:25.445Z,5.63
2018-09-24T14:18:00.792Z,6.43
2018-09-24T14:20:36.164Z,5.63
2018-09-24T14:23:11.748Z,4.33
2018-09-24T14:25:46.974Z,5.80
2018-09-24T14:28:22.397Z,2.70
2018-09-24T14:30:57.805Z,8.67
2018-09-24T14:33:33.236Z,5.53
2018-09-24T14:36:08.524Z,7.97
2018-09-24T14:38:43.877Z,3.67
2018-09-24T14:41:19.151Z,4.20
2018-09-24T16:13:20.955Z,4.50
2018-09-24T16:15:56.413Z,4.13
2018-09-24T16:18:31.849Z,3.00
2018-09-24T16:24:14.127Z,5.33
2018-09-24T16:26:50.143Z,3.73
2018-09-24T16:29:25.429Z,4.40
2018-09-24T16:34:50.996Z,2.53
2018-09-24T16:37:26.480Z,5.97
2018-09-24T16:40:01.812Z,6.30
2018-09-24T16:42:37.240Z,5.17
2018-09-24T16:45:12.697Z,2.93
2018-09-24T16:47:47.995Z,3.47
2018-09-24T16:50:23.137Z,6.10
2018-09-24T16:52:58.383Z,3.87
2018-09-24T16:55:33.610Z,13.17
2018-09-24T16:58:09.243Z,14.33
2018-09-24T17:00:42.884Z,6.10
2018-09-24T17:03:18.790Z,7.53
2018-09-24T17:11:43.967Z,7.50
2018-09-24T17:14:19.289Z,10.27
2018-09-24T17:16:54.673Z,8.20
2018-09-24T17:19:29.875Z,10.77
2018-09-24T17:22:05.205Z,5.70
2018-09-24T17:24:40.582Z,35.73
2018-09-24T17:27:16.099Z,39.87
2018-09-24T17:29:51.512Z,29.97
2018-09-24T17:32:27.004Z,31.07
2018-09-24T17:35:02.348Z,29.33
2018-09-24T17:37:37.728Z,25.73
2018-09-24T17:40:13.210Z,23.63
2018-09-24T17:42:48.570Z,24.73
2018-09-24T17:45:23.960Z,26.13
2018-09-24T17:47:59.581Z,19.73
2018-09-24T17:50:34.960Z,19.20
2018-09-24T17:53:10.132Z,22.57
2018-09-24T17:55:45.554Z,18.97
2018-09-24T17:58:20.909Z,23.57
2018-09-24T18:00:56.179Z,22.43
2018-09-24T18:03:31.619Z,17.90
2018-09-24T18:06:07.019Z,16.77
2018-09-24T18:08:42.420Z,14.30
2018-09-24T18:11:17.660Z,19.10
2018-09-24T18:13:52.857Z,15.13
2018-09-24T18:16:28.080Z,12.30
2018-09-24T18:19:03.543Z,14.33
2018-09-24T18:21:38.823Z,16.30
2018-09-24T18:24:14.262Z,19.33
2018-09-24T18:26:49.635Z,19.63
2018-09-24T18:29:24.977Z,17.83
2018-09-24T18:32:00.372Z,16.97
2018-09-24T18:34:35.736Z,13.30
2018-09-24T18:37:11.360Z,13.00
2018-09-24T18:39:46.806Z,16.40
2018-09-24T18:42:22.282Z,18.03
2018-09-24T18:44:57.773Z,13.80
2018-09-24T18:47:33.023Z,19.67
2018-09-24T18:50:08.444Z,15.03
2018-09-24T18:52:43.831Z,15.53
2018-09-24T18:55:19.271Z,15.67
2018-09-24T18:57:54.586Z,14.10
2018-09-24T19:00:29.967Z,16.87
2018-09-24T19:03:05.308Z,16.47
2018-09-24T19:05:40.677Z,15.90
2018-09-24T19:11:10.131Z,11.73
2018-09-24T19:13:45.447Z,9.93
2018-09-24T19:16:20.698Z,12.00
2018-09-24T19:18:56.098Z,11.60
2018-09-24T19:21:31.559Z,16.90
2018-09-24T19:24:06.900Z,12.40
2018-09-24T19:26:42.235Z,14.50
2018-09-24T19:29:17.598Z,11.17
2018-09-24T19:31:52.076Z,14.20
2018-09-24T19:37:21.232Z,12.13
2018-09-24T19:39:56.727Z,9.37
2018-09-24T19:42:32.091Z,12.23
2018-09-24T19:45:07.442Z,9.87
2018-09-24T19:47:42.788Z,10.57
2018-09-24T19:50:17.940Z,11.27
2018-09-24T19:52:53.121Z,10.97
2018-09-24T19:55:28.729Z,11.13
2018-09-24T19:58:04.140Z,8.67
2018-09-24T20:00:39.542Z,9.87
2018-09-24T20:09:14.979Z,10.10
2018-09-24T20:11:50.410Z,9.60
2018-09-24T20:14:25.800Z,8.97
2018-09-24T20:19:47.538Z,10.50
2018-09-24T20:25:24.856Z,6.93
2018-09-24T20:31:03.193Z,7.83
2018-09-24T20:33:38.368Z,7.40
2018-09-24T20:42:10.874Z,7.60
2018-09-24T20:44:46.109Z,7.40
2018-09-24T20:47:21.553Z,19.73
2018-09-24T20:49:56.866Z,16.87
2018-09-24T20:52:32.316Z,13.40
2018-09-24T20:55:08.186Z,12.53
2018-09-24T20:57:43.569Z,11.93
2018-09-24T21:00:18.963Z,9.07
2018-09-24T21:02:54.210Z,14.20
2018-09-24T21:05:29.575Z,10.47
2018-09-24T21:08:04.783Z,8.03
2018-09-24T21:10:40.097Z,10.97
2018-09-24T21:13:15.399Z,13.47
2018-09-24T21:15:50.601Z,10.93
2018-09-24T21:18:26.042Z,10.20
2018-09-24T21:21:01.368Z,11.70
2018-09-24T21:23:36.889Z,9.50
2018-09-24T21:26:12.135Z,10.10
2018-09-24T21:28:47.335Z,10.23
2018-09-24T21:31:22.564Z,11.10
2018-09-24T21:33:58.050Z,9.63
2018-09-24T21:36:33.501Z,10.03
2018-09-24T21:39:08.875Z,10.97
2018-09-24T21:41:44.174Z,9.40
2018-09-24T21:44:21.115Z,7.50
2018-09-24T21:46:56.466Z,9.13
2018-09-24T21:49:31.914Z,8.07
2018-09-24T21:52:07.089Z,6.47
